sensor_id;sensor_type;location;lat;lon;timestamp;P1;durP1;ratioP1;P2;durP2;ratioP2
75171;SDS011;63750;52.418;20.742;2023-04-25T00:00:35;26.10;;;23.60;;
75171;SDS011;63750;52.418;20.742;2023-04-25T00:03:02;26.60;;;24.10;;
75171;SDS011;63750;52.418;20.742;2023-04-25T00:05:29;27.60;;;24.90;;
75171;SDS011;63750;52.418;20.742;2023-04-25T00:07:56;27.80;;;25.00;;
75171;SDS011;63750;52.418;20.742;2023-04-25T00:10:24;27.20;;;24.60;;
75171;SDS011;63750;52.418;20.742;2023-04-25T00:12:51;27.20;;;24.60;;
75171;SDS011;63750;52.418;20.742;2023-04-25T00:15:18;28.40;;;25.60;;
75171;SDS011;63750;52.418;20.742;2023-04-25T00:17:45;28.20;;;25.40;;
75171;SDS011;63750;52.418;20.742;2023-04-25T00:20:13;27.50;;;24.90;;
75171;SDS011;63750;52.418;20.742;2023-04-25T00:22:40;27.90;;;25.20;;
75171;SDS011;63750;52.418;20.742;2023-04-25T00:25:07;26.70;;;24.20;;
75171;SDS011;63750;52.418;20.742;2023-04-25T00:27:35;27.20;;;24.60;;
75171;SDS011;63750;52.418;20.742;2023-04-25T00:30:02;25.90;;;23.50;;
75171;SDS011;63750;52.418;20.742;2023-04-25T00:32:30;27.80;;;25.10;;
75171;SDS011;63750;52.418;20.742;2023-04-25T00:34:57;26.80;;;24.30;;
75171;SDS011;63750;52.418;20.742;2023-04-25T00:37:24;28.00;;;25.40;;
75171;SDS011;63750;52.418;20.742;2023-04-25T00:39:51;27.50;;;24.80;;
75171;SDS011;63750;52.418;20.742;2023-04-25T00:42:18;26.80;;;24.30;;
75171;SDS011;63750;52.418;20.742;2023-04-25T00:44:45;28.20;;;25.50;;
75171;SDS011;63750;52.418;20.742;2023-04-25T00:47:13;28.50;;;25.90;;
75171;SDS011;63750;52.418;20.742;2023-04-25T00:49:41;28.80;;;26.10;;
75171;SDS011;63750;52.418;20.742;2023-04-25T00:52:08;27.40;;;24.70;;
75171;SDS011;63750;52.418;20.742;2023-04-25T00:54:35;27.90;;;25.30;;
75171;SDS011;63750;52.418;20.742;2023-04-25T00:57:02;27.60;;;24.90;;
75171;SDS011;63750;52.418;20.742;2023-04-25T00:59:29;28.30;;;25.70;;
75171;SDS011;63750;52.418;20.742;2023-04-25T01:01:57;28.30;;;25.60;;
75171;SDS011;63750;52.418;20.742;2023-04-25T01:04:24;28.30;;;25.30;;
75171;SDS011;63750;52.418;20.742;2023-04-25T01:06:53;28.80;;;25.80;;
75171;SDS011;63750;52.418;20.742;2023-04-25T01:09:20;28.90;;;26.10;;
75171;SDS011;63750;52.418;20.742;2023-04-25T01:11:48;27.90;;;25.20;;
75171;SDS011;63750;52.418;20.742;2023-04-25T01:14:15;28.60;;;25.90;;
75171;SDS011;63750;52.418;20.742;2023-04-25T01:16:43;27.20;;;24.50;;
75171;SDS011;63750;52.418;20.742;2023-04-25T01:19:10;28.50;;;25.70;;
75171;SDS011;63750;52.418;20.742;2023-04-25T01:21:37;29.20;;;26.40;;
75171;SDS011;63750;52.418;20.742;2023-04-25T01:24:05;30.10;;;27.40;;
75171;SDS011;63750;52.418;20.742;2023-04-25T01:26:32;29.10;;;26.50;;
75171;SDS011;63750;52.418;20.742;2023-04-25T01:29:00;29.30;;;26.50;;
75171;SDS011;63750;52.418;20.742;2023-04-25T01:31:28;29.00;;;26.00;;
75171;SDS011;63750;52.418;20.742;2023-04-25T01:33:56;26.90;;;24.40;;
75171;SDS011;63750;52.418;20.742;2023-04-25T01:36:23;28.10;;;25.40;;
75171;SDS011;63750;52.418;20.742;2023-04-25T01:38:50;27.80;;;25.20;;
75171;SDS011;63750;52.418;20.742;2023-04-25T01:41:17;28.20;;;25.40;;
75171;SDS011;63750;52.418;20.742;2023-04-25T01:43:45;27.80;;;24.90;;
75171;SDS011;63750;52.418;20.742;2023-04-25T01:46:12;27.50;;;24.70;;
75171;SDS011;63750;52.418;20.742;2023-04-25T01:48:39;27.10;;;24.50;;
75171;SDS011;63750;52.418;20.742;2023-04-25T01:51:06;26.40;;;24.00;;
75171;SDS011;63750;52.418;20.742;2023-04-25T01:53:33;27.60;;;25.00;;
75171;SDS011;63750;52.418;20.742;2023-04-25T01:56:00;28.50;;;25.80;;
75171;SDS011;63750;52.418;20.742;2023-04-25T01:58:27;28.60;;;25.60;;
75171;SDS011;63750;52.418;20.742;2023-04-25T02:00:54;28.30;;;25.40;;
75171;SDS011;63750;52.418;20.742;2023-04-25T02:03:21;28.80;;;25.90;;
75171;SDS011;63750;52.418;20.742;2023-04-25T02:05:48;27.40;;;24.50;;
75171;SDS011;63750;52.418;20.742;2023-04-25T02:08:16;27.10;;;24.40;;
75171;SDS011;63750;52.418;20.742;2023-04-25T02:10:43;27.30;;;24.50;;
75171;SDS011;63750;52.418;20.742;2023-04-25T02:13:10;27.10;;;24.40;;
75171;SDS011;63750;52.418;20.742;2023-04-25T02:15:37;27.20;;;24.50;;
75171;SDS011;63750;52.418;20.742;2023-04-25T02:18:05;28.50;;;25.60;;
75171;SDS011;63750;52.418;20.742;2023-04-25T02:20:32;28.10;;;25.10;;
75171;SDS011;63750;52.418;20.742;2023-04-25T02:22:59;26.50;;;23.90;;
75171;SDS011;63750;52.418;20.742;2023-04-25T02:25:27;25.70;;;23.20;;
75171;SDS011;63750;52.418;20.742;2023-04-25T02:27:54;26.20;;;23.50;;
75171;SDS011;63750;52.418;20.742;2023-04-25T02:30:21;25.00;;;22.50;;
75171;SDS011;63750;52.418;20.742;2023-04-25T02:32:48;25.50;;;22.90;;
75171;SDS011;63750;52.418;20.742;2023-04-25T02:35:15;22.90;;;20.40;;
75171;SDS011;63750;52.418;20.742;2023-04-25T02:37:42;23.40;;;21.20;;
75171;SDS011;63750;52.418;20.742;2023-04-25T02:40:10;23.70;;;21.20;;
75171;SDS011;63750;52.418;20.742;2023-04-25T02:42:37;23.40;;;21.00;;
75171;SDS011;63750;52.418;20.742;2023-04-25T02:45:05;22.00;;;19.90;;
75171;SDS011;63750;52.418;20.742;2023-04-25T02:47:34;21.90;;;19.70;;
75171;SDS011;63750;52.418;20.742;2023-04-25T02:50:01;22.30;;;20.10;;
75171;SDS011;63750;52.418;20.742;2023-04-25T02:52:28;21.90;;;19.60;;
75171;SDS011;63750;52.418;20.742;2023-04-25T02:54:55;22.60;;;20.20;;
75171;SDS011;63750;52.418;20.742;2023-04-25T02:57:22;21.20;;;19.20;;
75171;SDS011;63750;52.418;20.742;2023-04-25T02:59:49;22.20;;;20.00;;
75171;SDS011;63750;52.418;20.742;2023-04-25T03:02:17;21.90;;;19.80;;
75171;SDS011;63750;52.418;20.742;2023-04-25T03:04:43;22.50;;;20.30;;
75171;SDS011;63750;52.418;20.742;2023-04-25T03:07:10;21.00;;;18.90;;
75171;SDS011;63750;52.418;20.742;2023-04-25T03:09:38;21.20;;;19.30;;
75171;SDS011;63750;52.418;20.742;2023-04-25T03:12:06;20.60;;;18.60;;
75171;SDS011;63750;52.418;20.742;2023-04-25T03:14:33;20.50;;;18.50;;
75171;SDS011;63750;52.418;20.742;2023-04-25T03:17:01;19.20;;;17.40;;
75171;SDS011;63750;52.418;20.742;2023-04-25T03:19:28;19.10;;;17.20;;
75171;SDS011;63750;52.418;20.742;2023-04-25T03:21:55;20.30;;;18.10;;
75171;SDS011;63750;52.418;20.742;2023-04-25T03:24:22;18.20;;;16.40;;
75171;SDS011;63750;52.418;20.742;2023-04-25T03:26:49;18.80;;;17.00;;
75171;SDS011;63750;52.418;20.742;2023-04-25T03:29:16;18.40;;;16.50;;
75171;SDS011;63750;52.418;20.742;2023-04-25T03:31:43;17.70;;;15.80;;
75171;SDS011;63750;52.418;20.742;2023-04-25T03:34:10;17.90;;;16.10;;
75171;SDS011;63750;52.418;20.742;2023-04-25T03:36:37;16.30;;;14.60;;
75171;SDS011;63750;52.418;20.742;2023-04-25T03:39:04;16.80;;;15.20;;
75171;SDS011;63750;52.418;20.742;2023-04-25T03:41:31;15.50;;;13.90;;
75171;SDS011;63750;52.418;20.742;2023-04-25T03:43:57;15.30;;;13.90;;
75171;SDS011;63750;52.418;20.742;2023-04-25T03:46:25;15.90;;;14.50;;
75171;SDS011;63750;52.418;20.742;2023-04-25T03:48:51;13.80;;;12.50;;
75171;SDS011;63750;52.418;20.742;2023-04-25T03:51:18;14.70;;;13.20;;
75171;SDS011;63750;52.418;20.742;2023-04-25T03:53:45;13.40;;;12.10;;
75171;SDS011;63750;52.418;20.742;2023-04-25T03:56:13;14.20;;;12.70;;
75171;SDS011;63750;52.418;20.742;2023-04-25T03:58:40;14.20;;;12.80;;
75171;SDS011;63750;52.418;20.742;2023-04-25T04:01:07;14.00;;;12.60;;
75171;SDS011;63750;52.418;20.742;2023-04-25T04:03:34;14.50;;;13.10;;
75171;SDS011;63750;52.418;20.742;2023-04-25T04:06:01;14.80;;;12.70;;
75171;SDS011;63750;52.418;20.742;2023-04-25T04:08:29;14.50;;;13.10;;
75171;SDS011;63750;52.418;20.742;2023-04-25T04:10:57;13.80;;;12.40;;
75171;SDS011;63750;52.418;20.742;2023-04-25T04:13:25;14.90;;;13.10;;
75171;SDS011;63750;52.418;20.742;2023-04-25T04:15:52;14.90;;;13.40;;
75171;SDS011;63750;52.418;20.742;2023-04-25T04:18:19;14.70;;;13.20;;
75171;SDS011;63750;52.418;20.742;2023-04-25T04:20:46;15.80;;;14.10;;
75171;SDS011;63750;52.418;20.742;2023-04-25T04:23:14;15.90;;;14.40;;
75171;SDS011;63750;52.418;20.742;2023-04-25T04:25:41;14.80;;;13.40;;
75171;SDS011;63750;52.418;20.742;2023-04-25T04:28:08;15.60;;;14.10;;
75171;SDS011;63750;52.418;20.742;2023-04-25T04:30:35;16.40;;;14.80;;
75171;SDS011;63750;52.418;20.742;2023-04-25T04:33:02;16.50;;;15.00;;
75171;SDS011;63750;52.418;20.742;2023-04-25T04:35:29;19.10;;;17.20;;
75171;SDS011;63750;52.418;20.742;2023-04-25T04:37:56;17.40;;;15.80;;
75171;SDS011;63750;52.418;20.742;2023-04-25T04:40:23;17.30;;;15.50;;
75171;SDS011;63750;52.418;20.742;2023-04-25T04:42:50;17.80;;;16.20;;
75171;SDS011;63750;52.418;20.742;2023-04-25T04:45:17;18.20;;;16.40;;
75171;SDS011;63750;52.418;20.742;2023-04-25T04:47:44;17.20;;;15.60;;
75171;SDS011;63750;52.418;20.742;2023-04-25T04:50:11;18.30;;;16.60;;
75171;SDS011;63750;52.418;20.742;2023-04-25T04:52:38;18.80;;;17.00;;
75171;SDS011;63750;52.418;20.742;2023-04-25T04:55:06;18.10;;;16.40;;
75171;SDS011;63750;52.418;20.742;2023-04-25T04:57:34;18.00;;;16.40;;
75171;SDS011;63750;52.418;20.742;2023-04-25T05:00:01;19.20;;;17.30;;
75171;SDS011;63750;52.418;20.742;2023-04-25T05:02:29;18.60;;;16.90;;
75171;SDS011;63750;52.418;20.742;2023-04-25T05:04:56;19.60;;;17.80;;
75171;SDS011;63750;52.418;20.742;2023-04-25T05:07:23;20.30;;;18.40;;
75171;SDS011;63750;52.418;20.742;2023-04-25T05:09:50;19.30;;;17.50;;
75171;SDS011;63750;52.418;20.742;2023-04-25T05:12:17;19.10;;;17.40;;
75171;SDS011;63750;52.418;20.742;2023-04-25T05:14:45;19.30;;;17.60;;
75171;SDS011;63750;52.418;20.742;2023-04-25T05:17:12;21.10;;;19.20;;
75171;SDS011;63750;52.418;20.742;2023-04-25T05:19:39;20.90;;;19.10;;
75171;SDS011;63750;52.418;20.742;2023-04-25T05:22:06;19.60;;;17.90;;
75171;SDS011;63750;52.418;20.742;2023-04-25T05:24:33;20.60;;;18.70;;
75171;SDS011;63750;52.418;20.742;2023-04-25T05:27:00;20.10;;;18.30;;
75171;SDS011;63750;52.418;20.742;2023-04-25T05:29:27;20.40;;;18.50;;
75171;SDS011;63750;52.418;20.742;2023-04-25T05:31:54;21.80;;;19.80;;
75171;SDS011;63750;52.418;20.742;2023-04-25T05:34:21;20.80;;;18.70;;
75171;SDS011;63750;52.418;20.742;2023-04-25T05:36:48;21.50;;;19.50;;
75171;SDS011;63750;52.418;20.742;2023-04-25T05:39:15;20.00;;;18.20;;
75171;SDS011;63750;52.418;20.742;2023-04-25T05:41:43;19.80;;;17.80;;
75171;SDS011;63750;52.418;20.742;2023-04-25T05:44:10;20.10;;;18.00;;
75171;SDS011;63750;52.418;20.742;2023-04-25T05:46:37;18.90;;;17.20;;
75171;SDS011;63750;52.418;20.742;2023-04-25T05:49:04;19.80;;;17.90;;
75171;SDS011;63750;52.418;20.742;2023-04-25T05:51:31;18.70;;;16.90;;
75171;SDS011;63750;52.418;20.742;2023-04-25T05:53:58;19.50;;;17.70;;
75171;SDS011;63750;52.418;20.742;2023-04-25T05:56:25;19.60;;;17.70;;
75171;SDS011;63750;52.418;20.742;2023-04-25T05:58:52;19.60;;;17.70;;
75171;SDS011;63750;52.418;20.742;2023-04-25T06:01:19;20.40;;;18.50;;
75171;SDS011;63750;52.418;20.742;2023-04-25T06:03:47;20.40;;;18.50;;
75171;SDS011;63750;52.418;20.742;2023-04-25T06:06:14;18.50;;;16.90;;
75171;SDS011;63750;52.418;20.742;2023-04-25T06:08:41;19.00;;;17.30;;
75171;SDS011;63750;52.418;20.742;2023-04-25T06:11:08;19.20;;;17.40;;
75171;SDS011;63750;52.418;20.742;2023-04-25T06:13:35;19.40;;;17.80;;
75171;SDS011;63750;52.418;20.742;2023-04-25T06:16:03;18.20;;;16.60;;
75171;SDS011;63750;52.418;20.742;2023-04-25T06:18:30;18.00;;;16.30;;
75171;SDS011;63750;52.418;20.742;2023-04-25T06:20:57;18.40;;;16.60;;
75171;SDS011;63750;52.418;20.742;2023-04-25T06:23:24;17.70;;;16.10;;
75171;SDS011;63750;52.418;20.742;2023-04-25T06:25:51;18.50;;;16.80;;
75171;SDS011;63750;52.418;20.742;2023-04-25T06:28:19;18.90;;;17.30;;
75171;SDS011;63750;52.418;20.742;2023-04-25T06:30:46;19.80;;;18.00;;
75171;SDS011;63750;52.418;20.742;2023-04-25T06:33:13;20.60;;;18.70;;
75171;SDS011;63750;52.418;20.742;2023-04-25T06:35:40;19.60;;;17.90;;
75171;SDS011;63750;52.418;20.742;2023-04-25T06:38:08;22.00;;;20.00;;
75171;SDS011;63750;52.418;20.742;2023-04-25T06:40:35;21.50;;;19.50;;
75171;SDS011;63750;52.418;20.742;2023-04-25T06:43:01;21.60;;;19.60;;
75171;SDS011;63750;52.418;20.742;2023-04-25T06:45:28;20.80;;;19.00;;
75171;SDS011;63750;52.418;20.742;2023-04-25T06:47:56;18.50;;;16.90;;
75171;SDS011;63750;52.418;20.742;2023-04-25T06:50:23;18.20;;;16.50;;
75171;SDS011;63750;52.418;20.742;2023-04-25T06:52:50;16.50;;;15.00;;
75171;SDS011;63750;52.418;20.742;2023-04-25T06:55:17;17.90;;;16.30;;
75171;SDS011;63750;52.418;20.742;2023-04-25T06:57:44;16.60;;;15.10;;
75171;SDS011;63750;52.418;20.742;2023-04-25T07:00:12;16.70;;;15.20;;
75171;SDS011;63750;52.418;20.742;2023-04-25T07:02:41;16.50;;;15.10;;
75171;SDS011;63750;52.418;20.742;2023-04-25T07:05:08;17.50;;;15.90;;
75171;SDS011;63750;52.418;20.742;2023-04-25T07:07:35;17.40;;;15.80;;
75171;SDS011;63750;52.418;20.742;2023-04-25T07:10:03;17.60;;;15.90;;
75171;SDS011;63750;52.418;20.742;2023-04-25T07:12:30;16.90;;;15.40;;
75171;SDS011;63750;52.418;20.742;2023-04-25T07:14:57;16.30;;;14.80;;
75171;SDS011;63750;52.418;20.742;2023-04-25T07:17:25;17.00;;;15.50;;
75171;SDS011;63750;52.418;20.742;2023-04-25T07:19:52;15.80;;;14.30;;
75171;SDS011;63750;52.418;20.742;2023-04-25T07:22:19;15.70;;;14.30;;
75171;SDS011;63750;52.418;20.742;2023-04-25T07:24:46;16.00;;;14.60;;
75171;SDS011;63750;52.418;20.742;2023-04-25T07:27:13;15.30;;;13.90;;
75171;SDS011;63750;52.418;20.742;2023-04-25T07:29:40;15.30;;;13.90;;
75171;SDS011;63750;52.418;20.742;2023-04-25T07:32:07;14.10;;;12.90;;
75171;SDS011;63750;52.418;20.742;2023-04-25T07:34:34;14.40;;;13.10;;
75171;SDS011;63750;52.418;20.742;2023-04-25T07:37:01;14.40;;;13.10;;
75171;SDS011;63750;52.418;20.742;2023-04-25T07:39:28;14.40;;;13.10;;
75171;SDS011;63750;52.418;20.742;2023-04-25T07:41:55;14.70;;;13.30;;
75171;SDS011;63750;52.418;20.742;2023-04-25T07:44:22;15.00;;;13.60;;
75171;SDS011;63750;52.418;20.742;2023-04-25T07:46:50;14.90;;;13.60;;
75171;SDS011;63750;52.418;20.742;2023-04-25T07:49:17;15.40;;;14.00;;
75171;SDS011;63750;52.418;20.742;2023-04-25T07:51:44;15.70;;;14.30;;
75171;SDS011;63750;52.418;20.742;2023-04-25T07:54:21;15.40;;;14.00;;
75171;SDS011;63750;52.418;20.742;2023-04-25T07:56:48;15.70;;;14.20;;
75171;SDS011;63750;52.418;20.742;2023-04-25T07:59:15;16.60;;;15.00;;
75171;SDS011;63750;52.418;20.742;2023-04-25T08:01:42;17.40;;;15.80;;
75171;SDS011;63750;52.418;20.742;2023-04-25T08:04:09;16.60;;;15.20;;
75171;SDS011;63750;52.418;20.742;2023-04-25T08:06:35;16.50;;;15.10;;
75171;SDS011;63750;52.418;20.742;2023-04-25T08:09:03;17.20;;;15.70;;
75171;SDS011;63750;52.418;20.742;2023-04-25T08:11:30;17.10;;;15.60;;
75171;SDS011;63750;52.418;20.742;2023-04-25T08:13:57;17.20;;;15.70;;
75171;SDS011;63750;52.418;20.742;2023-04-25T08:16:24;16.20;;;14.80;;
75171;SDS011;63750;52.418;20.742;2023-04-25T08:18:51;16.20;;;14.80;;
75171;SDS011;63750;52.418;20.742;2023-04-25T08:21:18;16.80;;;15.40;;
75171;SDS011;63750;52.418;20.742;2023-04-25T08:23:45;17.00;;;15.50;;
75171;SDS011;63750;52.418;20.742;2023-04-25T08:26:12;16.20;;;14.90;;
75171;SDS011;63750;52.418;20.742;2023-04-25T08:28:42;17.50;;;16.00;;
75171;SDS011;63750;52.418;20.742;2023-04-25T08:31:09;16.90;;;15.50;;
75171;SDS011;63750;52.418;20.742;2023-04-25T08:33:36;17.20;;;15.80;;
75171;SDS011;63750;52.418;20.742;2023-04-25T08:36:03;17.70;;;16.20;;
75171;SDS011;63750;52.418;20.742;2023-04-25T08:38:31;17.40;;;15.90;;
75171;SDS011;63750;52.418;20.742;2023-04-25T08:40:58;16.60;;;15.30;;
75171;SDS011;63750;52.418;20.742;2023-04-25T08:43:26;16.80;;;15.40;;
75171;SDS011;63750;52.418;20.742;2023-04-25T08:45:55;17.40;;;15.90;;
75171;SDS011;63750;52.418;20.742;2023-04-25T08:48:26;16.00;;;14.70;;
75171;SDS011;63750;52.418;20.742;2023-04-25T08:50:55;15.90;;;14.60;;
75171;SDS011;63750;52.418;20.742;2023-04-25T08:53:25;16.70;;;15.40;;
75171;SDS011;63750;52.418;20.742;2023-04-25T08:55:54;16.40;;;14.90;;
75171;SDS011;63750;52.418;20.742;2023-04-25T08:58:22;15.10;;;13.80;;
75171;SDS011;63750;52.418;20.742;2023-04-25T09:00:50;14.60;;;13.40;;
75171;SDS011;63750;52.418;20.742;2023-04-25T09:03:18;14.90;;;13.60;;
75171;SDS011;63750;52.418;20.742;2023-04-25T09:05:45;14.70;;;13.50;;
75171;SDS011;63750;52.418;20.742;2023-04-25T09:08:12;13.70;;;12.40;;
75171;SDS011;63750;52.418;20.742;2023-04-25T09:10:39;13.80;;;12.50;;
75171;SDS011;63750;52.418;20.742;2023-04-25T09:13:08;13.70;;;12.50;;
75171;SDS011;63750;52.418;20.742;2023-04-25T09:15:46;12.60;;;11.50;;
75171;SDS011;63750;52.418;20.742;2023-04-25T09:18:22;13.50;;;12.30;;
75171;SDS011;63750;52.418;20.742;2023-04-25T09:20:50;13.50;;;12.40;;
75171;SDS011;63750;52.418;20.742;2023-04-25T09:23:18;15.00;;;13.60;;
75171;SDS011;63750;52.418;20.742;2023-04-25T09:25:47;14.90;;;13.50;;
75171;SDS011;63750;52.418;20.742;2023-04-25T09:28:16;15.80;;;14.40;;
75171;SDS011;63750;52.418;20.742;2023-04-25T09:30:48;14.30;;;13.10;;
75171;SDS011;63750;52.418;20.742;2023-04-25T09:33:15;15.90;;;14.50;;
75171;SDS011;63750;52.418;20.742;2023-04-25T09:35:43;15.60;;;14.30;;
75171;SDS011;63750;52.418;20.742;2023-04-25T09:38:11;16.40;;;14.90;;
75171;SDS011;63750;52.418;20.742;2023-04-25T09:40:39;16.00;;;14.60;;
75171;SDS011;63750;52.418;20.742;2023-04-25T09:43:10;15.60;;;14.20;;
75171;SDS011;63750;52.418;20.742;2023-04-25T09:45:46;15.50;;;14.20;;
75171;SDS011;63750;52.418;20.742;2023-04-25T09:48:17;15.40;;;14.00;;
75171;SDS011;63750;52.418;20.742;2023-04-25T09:50:44;14.20;;;13.00;;
75171;SDS011;63750;52.418;20.742;2023-04-25T09:53:11;12.80;;;11.70;;
75171;SDS011;63750;52.418;20.742;2023-04-25T09:55:38;12.50;;;11.40;;
75171;SDS011;63750;52.418;20.742;2023-04-25T09:58:08;11.30;;;10.40;;
75171;SDS011;63750;52.418;20.742;2023-04-25T10:00:37;11.80;;;10.80;;
75171;SDS011;63750;52.418;20.742;2023-04-25T10:03:05;11.00;;;10.00;;
75171;SDS011;63750;52.418;20.742;2023-04-25T10:05:32;11.30;;;10.30;;
75171;SDS011;63750;52.418;20.742;2023-04-25T10:08:02;10.80;;;9.90;;
75171;SDS011;63750;52.418;20.742;2023-04-25T10:10:30;10.40;;;9.50;;
75171;SDS011;63750;52.418;20.742;2023-04-25T10:12:58;9.90;;;9.10;;
75171;SDS011;63750;52.418;20.742;2023-04-25T10:15:26;9.60;;;8.90;;
75171;SDS011;63750;52.418;20.742;2023-04-25T10:17:54;9.60;;;8.80;;
75171;SDS011;63750;52.418;20.742;2023-04-25T10:20:22;8.90;;;8.20;;
75171;SDS011;63750;52.418;20.742;2023-04-25T10:22:49;8.80;;;8.00;;
75171;SDS011;63750;52.418;20.742;2023-04-25T10:25:22;8.40;;;7.60;;
75171;SDS011;63750;52.418;20.742;2023-04-25T10:27:50;10.40;;;7.50;;
75171;SDS011;63750;52.418;20.742;2023-04-25T10:30:18;8.20;;;7.50;;
75171;SDS011;63750;52.418;20.742;2023-04-25T10:32:45;8.00;;;7.30;;
75171;SDS011;63750;52.418;20.742;2023-04-25T10:35:14;7.50;;;6.80;;
75171;SDS011;63750;52.418;20.742;2023-04-25T10:37:58;7.40;;;6.80;;
75171;SDS011;63750;52.418;20.742;2023-04-25T10:40:31;8.20;;;7.50;;
75171;SDS011;63750;52.418;20.742;2023-04-25T10:46:02;7.20;;;6.60;;
75171;SDS011;63750;52.418;20.742;2023-04-25T10:48:38;7.50;;;6.90;;
75171;SDS011;63750;52.418;20.742;2023-04-25T10:51:17;7.10;;;6.50;;
75171;SDS011;63750;52.418;20.742;2023-04-25T10:53:46;7.40;;;6.70;;
75171;SDS011;63750;52.418;20.742;2023-04-25T10:56:23;7.20;;;6.60;;
75171;SDS011;63750;52.418;20.742;2023-04-25T10:58:52;7.00;;;6.40;;
75171;SDS011;63750;52.418;20.742;2023-04-25T11:01:35;6.70;;;6.00;;
75171;SDS011;63750;52.418;20.742;2023-04-25T11:04:04;8.60;;;7.70;;
75171;SDS011;63750;52.418;20.742;2023-04-25T11:06:33;9.00;;;8.10;;
75171;SDS011;63750;52.418;20.742;2023-04-25T11:09:12;7.50;;;6.70;;
75171;SDS011;63750;52.418;20.742;2023-04-25T11:11:40;6.70;;;6.10;;
75171;SDS011;63750;52.418;20.742;2023-04-25T11:14:06;7.00;;;6.40;;
75171;SDS011;63750;52.418;20.742;2023-04-25T11:16:33;7.80;;;7.20;;
75171;SDS011;63750;52.418;20.742;2023-04-25T11:19:00;8.40;;;7.60;;
75171;SDS011;63750;52.418;20.742;2023-04-25T11:21:27;8.50;;;7.80;;
75171;SDS011;63750;52.418;20.742;2023-04-25T11:23:56;8.90;;;8.00;;
75171;SDS011;63750;52.418;20.742;2023-04-25T11:26:23;8.90;;;8.10;;
75171;SDS011;63750;52.418;20.742;2023-04-25T11:28:50;8.70;;;7.90;;
75171;SDS011;63750;52.418;20.742;2023-04-25T11:31:22;7.90;;;7.30;;
75171;SDS011;63750;52.418;20.742;2023-04-25T11:33:52;8.10;;;7.40;;
75171;SDS011;63750;52.418;20.742;2023-04-25T11:36:22;8.90;;;8.10;;
75171;SDS011;63750;52.418;20.742;2023-04-25T11:38:49;9.20;;;8.40;;
75171;SDS011;63750;52.418;20.742;2023-04-25T11:41:16;9.40;;;8.50;;
75171;SDS011;63750;52.418;20.742;2023-04-25T11:43:44;9.60;;;8.70;;
75171;SDS011;63750;52.418;20.742;2023-04-25T11:46:11;9.60;;;8.80;;
75171;SDS011;63750;52.418;20.742;2023-04-25T11:48:38;9.90;;;9.00;;
75171;SDS011;63750;52.418;20.742;2023-04-25T11:51:05;8.90;;;8.20;;
75171;SDS011;63750;52.418;20.742;2023-04-25T11:53:33;8.60;;;7.90;;
75171;SDS011;63750;52.418;20.742;2023-04-25T11:56:00;7.40;;;6.90;;
75171;SDS011;63750;52.418;20.742;2023-04-25T11:58:27;7.80;;;7.10;;
75171;SDS011;63750;52.418;20.742;2023-04-25T12:00:55;7.70;;;7.00;;
75171;SDS011;63750;52.418;20.742;2023-04-25T12:03:23;7.10;;;6.50;;
75171;SDS011;63750;52.418;20.742;2023-04-25T12:05:50;6.90;;;6.30;;
75171;SDS011;63750;52.418;20.742;2023-04-25T12:08:17;6.70;;;6.20;;
75171;SDS011;63750;52.418;20.742;2023-04-25T12:10:44;7.10;;;6.50;;
75171;SDS011;63750;52.418;20.742;2023-04-25T12:13:19;6.90;;;6.30;;
75171;SDS011;63750;52.418;20.742;2023-04-25T12:15:47;6.90;;;6.30;;
75171;SDS011;63750;52.418;20.742;2023-04-25T12:18:14;6.80;;;6.20;;
75171;SDS011;63750;52.418;20.742;2023-04-25T12:20:44;7.30;;;6.60;;
75171;SDS011;63750;52.418;20.742;2023-04-25T12:23:11;7.40;;;6.70;;
75171;SDS011;63750;52.418;20.742;2023-04-25T12:25:38;7.50;;;6.90;;
75171;SDS011;63750;52.418;20.742;2023-04-25T12:28:14;6.70;;;6.20;;
75171;SDS011;63750;52.418;20.742;2023-04-25T12:30:59;6.10;;;5.50;;
75171;SDS011;63750;52.418;20.742;2023-04-25T12:33:27;6.70;;;6.10;;
75171;SDS011;63750;52.418;20.742;2023-04-25T12:35:55;6.90;;;6.30;;
75171;SDS011;63750;52.418;20.742;2023-04-25T12:38:24;6.10;;;5.60;;
75171;SDS011;63750;52.418;20.742;2023-04-25T12:40:51;6.40;;;5.90;;
75171;SDS011;63750;52.418;20.742;2023-04-25T12:43:21;5.90;;;5.50;;
75171;SDS011;63750;52.418;20.742;2023-04-25T12:45:48;6.30;;;5.90;;
75171;SDS011;63750;52.418;20.742;2023-04-25T12:48:16;5.80;;;5.40;;
75171;SDS011;63750;52.418;20.742;2023-04-25T12:50:43;6.10;;;5.60;;
75171;SDS011;63750;52.418;20.742;2023-04-25T12:53:11;6.40;;;5.80;;
75171;SDS011;63750;52.418;20.742;2023-04-25T12:55:38;6.10;;;5.60;;
75171;SDS011;63750;52.418;20.742;2023-04-25T12:58:05;7.10;;;6.50;;
75171;SDS011;63750;52.418;20.742;2023-04-25T13:00:32;6.10;;;5.60;;
75171;SDS011;63750;52.418;20.742;2023-04-25T13:02:59;6.00;;;5.60;;
75171;SDS011;63750;52.418;20.742;2023-04-25T13:05:26;5.90;;;5.50;;
75171;SDS011;63750;52.418;20.742;2023-04-25T13:07:53;7.00;;;6.40;;
75171;SDS011;63750;52.418;20.742;2023-04-25T13:10:20;7.10;;;6.50;;
75171;SDS011;63750;52.418;20.742;2023-04-25T13:12:47;6.50;;;6.00;;
75171;SDS011;63750;52.418;20.742;2023-04-25T13:15:15;6.50;;;5.80;;
75171;SDS011;63750;52.418;20.742;2023-04-25T13:17:43;6.70;;;6.10;;
75171;SDS011;63750;52.418;20.742;2023-04-25T13:20:10;6.40;;;5.90;;
75171;SDS011;63750;52.418;20.742;2023-04-25T13:22:37;6.50;;;6.00;;
75171;SDS011;63750;52.418;20.742;2023-04-25T13:25:06;6.40;;;5.90;;
75171;SDS011;63750;52.418;20.742;2023-04-25T13:27:34;7.00;;;6.50;;
75171;SDS011;63750;52.418;20.742;2023-04-25T13:30:02;6.90;;;6.20;;
75171;SDS011;63750;52.418;20.742;2023-04-25T13:32:31;7.00;;;6.50;;
75171;SDS011;63750;52.418;20.742;2023-04-25T13:34:58;7.60;;;7.00;;
75171;SDS011;63750;52.418;20.742;2023-04-25T13:37:25;7.00;;;6.50;;
75171;SDS011;63750;52.418;20.742;2023-04-25T13:39:52;8.80;;;7.90;;
75171;SDS011;63750;52.418;20.742;2023-04-25T13:42:19;8.20;;;7.60;;
75171;SDS011;63750;52.418;20.742;2023-04-25T13:44:45;7.90;;;7.30;;
75171;SDS011;63750;52.418;20.742;2023-04-25T13:47:12;7.50;;;7.00;;
75171;SDS011;63750;52.418;20.742;2023-04-25T13:49:39;6.90;;;6.40;;
75171;SDS011;63750;52.418;20.742;2023-04-25T13:52:06;8.30;;;7.50;;
75171;SDS011;63750;52.418;20.742;2023-04-25T13:54:33;7.30;;;6.70;;
75171;SDS011;63750;52.418;20.742;2023-04-25T13:57:00;7.20;;;6.60;;
75171;SDS011;63750;52.418;20.742;2023-04-25T13:59:28;7.50;;;6.90;;
75171;SDS011;63750;52.418;20.742;2023-04-25T14:01:55;6.50;;;6.00;;
75171;SDS011;63750;52.418;20.742;2023-04-25T14:04:21;7.80;;;7.20;;
75171;SDS011;63750;52.418;20.742;2023-04-25T14:06:49;8.20;;;7.50;;
75171;SDS011;63750;52.418;20.742;2023-04-25T14:09:16;8.10;;;7.50;;
75171;SDS011;63750;52.418;20.742;2023-04-25T14:11:44;7.90;;;7.30;;
75171;SDS011;63750;52.418;20.742;2023-04-25T14:14:11;9.00;;;8.20;;
75171;SDS011;63750;52.418;20.742;2023-04-25T14:16:38;9.50;;;8.60;;
75171;SDS011;63750;52.418;20.742;2023-04-25T14:19:05;9.10;;;8.20;;
75171;SDS011;63750;52.418;20.742;2023-04-25T14:21:32;8.40;;;7.70;;